Página principal
METAR-TAF:

METAR-TAF

Aeroportos :

Salak

Maroua, Camarões

latitude: 10-27N, longitude: 014-15E, altura: 423 m

Observação actual do tempo

O boletim foi feito há 14 horas e 33 minutos, às 13:00 UTC
Vento 8 kt de sul, variando entre sudeste e sudoeste
Temperatura 39°C
Humidade 33%
Pressão 1010 hPa
Visibilidade 10 km ou mais
Poucas nuvensa uma altura de 4000 ft
Poucas nuvensa uma altura de 4000 ft, Cumulonimbus.

METAR: FKKL 281300Z 18008KT 130V230 9999 FEW040 FEW040CB 39/20 Q1010

Hora: 04:33 (03:33 UTC)

Previsão

O boletim foi feito há 22 horas e 33 minutos, às 05:00 UTC
Previsão válida de 28 às 06 UTC a 28 às 18 UTC
Vento 5 kt com direcção variável
Poucas nuvensa uma altura de 4000 ft
Probabilidade 40%
de 28 às 08 UTC a 28 às 11 UTC
Nuvens fragmentadasa uma altura de 1400 ft
Poucas nuvensa uma altura de 3000 ft, Cumulonimbus.
trovoada,

TAF: FKKL 280500Z 2806/2818 VRB05KT FEW040 PROB40 2808/2811 TS BKN014 FEW030CB

Observações e previsões do tempo de mais de 4000 aeroportos (mensagens METAR e TAF).

As estações disponíveis são os pontos amarelos e vermelhos sobre o mapa.

Mova o rato sobre o mapa para ver o nome da estação.

Depois clique no ponto para visualizar as observações e previsões meteorológicas.

Para alterar o mapa : clique nos botões verdes com uma cruz preta para aumentar o zoom; no botão verde com uma pitada de zoom; ou nas setas verdes para mapas adjacentes.


METAR-TAF: